sensor_id;sensor_type;location;lat;lon;timestamp;temperature;humidity
3256;DHT22;1640;48.504;9.224;2024-02-23T00:01:25;5.40;3.70
3256;DHT22;1640;48.504;9.224;2024-02-23T00:03:53;5.40;3.70
3256;DHT22;1640;48.504;9.224;2024-02-23T00:06:22;5.40;3.70
3256;DHT22;1640;48.504;9.224;2024-02-23T00:08:53;5.30;3.70
3256;DHT22;1640;48.504;9.224;2024-02-23T00:11:21;5.40;3.70
3256;DHT22;1640;48.504;9.224;2024-02-23T00:13:49;5.40;3.70
3256;DHT22;1640;48.504;9.224;2024-02-23T00:16:16;5.40;3.70
3256;DHT22;1640;48.504;9.224;2024-02-23T00:18:43;5.30;3.70
3256;DHT22;1640;48.504;9.224;2024-02-23T00:21:11;5.30;3.70
3256;DHT22;1640;48.504;9.224;2024-02-23T00:23:40;5.30;3.70
3256;DHT22;1640;48.504;9.224;2024-02-23T00:26:07;5.20;3.70
3256;DHT22;1640;48.504;9.224;2024-02-23T00:28:35;5.10;3.70
3256;DHT22;1640;48.504;9.224;2024-02-23T00:31:02;5.10;3.70
3256;DHT22;1640;48.504;9.224;2024-02-23T00:33:30;5.00;3.70
3256;DHT22;1640;48.504;9.224;2024-02-23T00:35:58;4.90;3.70
3256;DHT22;1640;48.504;9.224;2024-02-23T00:38:25;4.80;3.70
3256;DHT22;1640;48.504;9.224;2024-02-23T00:40:54;4.70;3.70
3256;DHT22;1640;48.504;9.224;2024-02-23T00:43:21;4.60;3.70
3256;DHT22;1640;48.504;9.224;2024-02-23T00:45:49;4.60;3.70
3256;DHT22;1640;48.504;9.224;2024-02-23T00:48:16;4.50;3.70
3256;DHT22;1640;48.504;9.224;2024-02-23T00:50:44;4.50;3.70
3256;DHT22;1640;48.504;9.224;2024-02-23T00:53:11;4.50;3.70
3256;DHT22;1640;48.504;9.224;2024-02-23T00:55:39;4.50;3.70
3256;DHT22;1640;48.504;9.224;2024-02-23T00:58:07;4.40;3.70
3256;DHT22;1640;48.504;9.224;2024-02-23T01:00:35;4.30;3.70
3256;DHT22;1640;48.504;9.224;2024-02-23T01:03:02;4.30;3.70
3256;DHT22;1640;48.504;9.224;2024-02-23T01:05:30;4.30;3.70
3256;DHT22;1640;48.504;9.224;2024-02-23T01:07:57;4.30;3.70
3256;DHT22;1640;48.504;9.224;2024-02-23T01:10:25;4.20;3.70
3256;DHT22;1640;48.504;9.224;2024-02-23T01:12:53;4.30;3.70
3256;DHT22;1640;48.504;9.224;2024-02-23T01:15:22;4.20;3.70
3256;DHT22;1640;48.504;9.224;2024-02-23T01:17:49;4.30;3.70
3256;DHT22;1640;48.504;9.224;2024-02-23T01:20:16;4.30;3.70
3256;DHT22;1640;48.504;9.224;2024-02-23T01:22:44;4.30;3.70
3256;DHT22;1640;48.504;9.224;2024-02-23T01:25:12;4.30;3.70
3256;DHT22;1640;48.504;9.224;2024-02-23T01:27:41;4.30;3.70
3256;DHT22;1640;48.504;9.224;2024-02-23T01:30:11;4.40;3.70
3256;DHT22;1640;48.504;9.224;2024-02-23T01:32:40;4.40;3.70
3256;DHT22;1640;48.504;9.224;2024-02-23T01:35:08;4.40;3.70
3256;DHT22;1640;48.504;9.224;2024-02-23T01:37:35;4.30;3.70
3256;DHT22;1640;48.504;9.224;2024-02-23T01:40:03;4.30;3.70
3256;DHT22;1640;48.504;9.224;2024-02-23T01:42:30;4.40;3.70
3256;DHT22;1640;48.504;9.224;2024-02-23T01:44:57;4.40;3.70
3256;DHT22;1640;48.504;9.224;2024-02-23T01:47:27;4.40;3.70
3256;DHT22;1640;48.504;9.224;2024-02-23T01:49:58;4.50;3.70
3256;DHT22;1640;48.504;9.224;2024-02-23T01:52:26;4.50;3.70
3256;DHT22;1640;48.504;9.224;2024-02-23T01:54:54;4.60;3.70
3256;DHT22;1640;48.504;9.224;2024-02-23T01:57:22;4.50;3.70
3256;DHT22;1640;48.504;9.224;2024-02-23T01:59:50;4.60;3.70
3256;DHT22;1640;48.504;9.224;2024-02-23T02:02:18;4.60;3.70
3256;DHT22;1640;48.504;9.224;2024-02-23T02:04:45;4.60;3.70
3256;DHT22;1640;48.504;9.224;2024-02-23T02:07:14;4.60;3.70
3256;DHT22;1640;48.504;9.224;2024-02-23T02:09:44;4.60;3.70
3256;DHT22;1640;48.504;9.224;2024-02-23T02:12:11;4.60;3.70
3256;DHT22;1640;48.504;9.224;2024-02-23T02:14:39;4.60;3.70
3256;DHT22;1640;48.504;9.224;2024-02-23T02:17:06;4.60;3.70
3256;DHT22;1640;48.504;9.224;2024-02-23T02:19:33;4.70;3.70
3256;DHT22;1640;48.504;9.224;2024-02-23T02:22:01;4.70;3.70
3256;DHT22;1640;48.504;9.224;2024-02-23T02:24:30;4.70;3.70
3256;DHT22;1640;48.504;9.224;2024-02-23T02:26:57;4.80;3.70
3256;DHT22;1640;48.504;9.224;2024-02-23T02:29:25;4.90;3.70
3256;DHT22;1640;48.504;9.224;2024-02-23T02:31:52;5.00;3.70
3256;DHT22;1640;48.504;9.224;2024-02-23T02:34:19;5.00;3.70
3256;DHT22;1640;48.504;9.224;2024-02-23T02:36:47;5.10;3.70
3256;DHT22;1640;48.504;9.224;2024-02-23T02:39:14;5.10;3.70
3256;DHT22;1640;48.504;9.224;2024-02-23T02:41:43;5.10;3.70
3256;DHT22;1640;48.504;9.224;2024-02-23T02:44:11;5.20;3.70
3256;DHT22;1640;48.504;9.224;2024-02-23T02:46:40;5.20;3.70
3256;DHT22;1640;48.504;9.224;2024-02-23T02:49:08;5.20;3.70
3256;DHT22;1640;48.504;9.224;2024-02-23T02:51:35;5.20;3.70
3256;DHT22;1640;48.504;9.224;2024-02-23T02:54:02;5.20;3.70
3256;DHT22;1640;48.504;9.224;2024-02-23T02:56:30;5.20;3.70
3256;DHT22;1640;48.504;9.224;2024-02-23T02:58:59;5.20;3.70
3256;DHT22;1640;48.504;9.224;2024-02-23T03:01:26;5.20;3.70
3256;DHT22;1640;48.504;9.224;2024-02-23T03:03:53;5.20;3.70
3256;DHT22;1640;48.504;9.224;2024-02-23T03:06:21;5.20;3.70
3256;DHT22;1640;48.504;9.224;2024-02-23T03:08:48;5.20;3.70
3256;DHT22;1640;48.504;9.224;2024-02-23T03:11:15;5.20;3.70
3256;DHT22;1640;48.504;9.224;2024-02-23T03:13:43;5.20;99.90
3256;DHT22;1640;48.504;9.224;2024-02-23T03:16:16;5.20;99.90
3256;DHT22;1640;48.504;9.224;2024-02-23T03:18:44;5.20;99.90
3256;DHT22;1640;48.504;9.224;2024-02-23T03:21:12;5.20;99.90
3256;DHT22;1640;48.504;9.224;2024-02-23T03:23:40;5.20;99.90
3256;DHT22;1640;48.504;9.224;2024-02-23T03:26:08;5.20;99.90
3256;DHT22;1640;48.504;9.224;2024-02-23T03:28:35;5.20;99.90
3256;DHT22;1640;48.504;9.224;2024-02-23T03:31:03;5.20;99.90
3256;DHT22;1640;48.504;9.224;2024-02-23T03:33:31;5.10;99.90
3256;DHT22;1640;48.504;9.224;2024-02-23T03:35:59;5.10;99.90
3256;DHT22;1640;48.504;9.224;2024-02-23T03:38:27;5.10;99.90
3256;DHT22;1640;48.504;9.224;2024-02-23T03:40:56;5.10;99.90
3256;DHT22;1640;48.504;9.224;2024-02-23T03:43:23;5.00;99.90
3256;DHT22;1640;48.504;9.224;2024-02-23T03:45:50;5.00;99.90
3256;DHT22;1640;48.504;9.224;2024-02-23T03:48:18;5.10;99.90
3256;DHT22;1640;48.504;9.224;2024-02-23T03:50:47;5.10;99.90
3256;DHT22;1640;48.504;9.224;2024-02-23T03:53:14;5.00;99.90
3256;DHT22;1640;48.504;9.224;2024-02-23T03:55:44;5.00;99.90
3256;DHT22;1640;48.504;9.224;2024-02-23T03:58:11;5.00;99.90
3256;DHT22;1640;48.504;9.224;2024-02-23T04:00:38;5.00;99.90
3256;DHT22;1640;48.504;9.224;2024-02-23T04:03:06;5.00;99.90
3256;DHT22;1640;48.504;9.224;2024-02-23T04:05:35;4.90;99.90
3256;DHT22;1640;48.504;9.224;2024-02-23T04:08:04;5.00;99.90
3256;DHT22;1640;48.504;9.224;2024-02-23T04:10:32;5.00;99.90
3256;DHT22;1640;48.504;9.224;2024-02-23T04:13:00;5.00;99.90
3256;DHT22;1640;48.504;9.224;2024-02-23T04:15:27;5.00;99.90
3256;DHT22;1640;48.504;9.224;2024-02-23T04:17:54;4.90;99.90
3256;DHT22;1640;48.504;9.224;2024-02-23T04:20:22;4.90;99.90
3256;DHT22;1640;48.504;9.224;2024-02-23T04:22:49;4.90;99.90
3256;DHT22;1640;48.504;9.224;2024-02-23T04:25:18;4.90;99.90
3256;DHT22;1640;48.504;9.224;2024-02-23T04:27:45;4.90;99.90
3256;DHT22;1640;48.504;9.224;2024-02-23T04:30:13;4.90;99.90
3256;DHT22;1640;48.504;9.224;2024-02-23T04:32:41;4.90;99.90
3256;DHT22;1640;48.504;9.224;2024-02-23T04:35:08;4.90;99.90
3256;DHT22;1640;48.504;9.224;2024-02-23T04:37:36;4.90;99.90
3256;DHT22;1640;48.504;9.224;2024-02-23T04:40:04;4.90;99.90
3256;DHT22;1640;48.504;9.224;2024-02-23T04:42:33;4.90;99.90
3256;DHT22;1640;48.504;9.224;2024-02-23T04:45:01;4.90;99.90
3256;DHT22;1640;48.504;9.224;2024-02-23T04:47:28;4.80;99.90
3256;DHT22;1640;48.504;9.224;2024-02-23T04:49:56;4.80;99.90
3256;DHT22;1640;48.504;9.224;2024-02-23T04:52:23;4.70;99.90
3256;DHT22;1640;48.504;9.224;2024-02-23T04:54:50;4.80;99.90
3256;DHT22;1640;48.504;9.224;2024-02-23T04:57:18;4.80;99.90
3256;DHT22;1640;48.504;9.224;2024-02-23T04:59:46;4.70;99.90
3256;DHT22;1640;48.504;9.224;2024-02-23T05:02:14;4.70;99.90
3256;DHT22;1640;48.504;9.224;2024-02-23T05:04:42;4.80;99.90
3256;DHT22;1640;48.504;9.224;2024-02-23T05:07:09;4.80;99.90
3256;DHT22;1640;48.504;9.224;2024-02-23T05:09:37;4.70;99.90
3256;DHT22;1640;48.504;9.224;2024-02-23T05:12:07;4.80;99.90
3256;DHT22;1640;48.504;9.224;2024-02-23T05:14:35;4.80;99.90
3256;DHT22;1640;48.504;9.224;2024-02-23T05:17:04;4.70;99.90
3256;DHT22;1640;48.504;9.224;2024-02-23T05:19:31;4.70;99.90
3256;DHT22;1640;48.504;9.224;2024-02-23T05:21:58;4.60;99.90
3256;DHT22;1640;48.504;9.224;2024-02-23T05:24:26;4.60;99.90
3256;DHT22;1640;48.504;9.224;2024-02-23T05:26:53;4.70;99.90
3256;DHT22;1640;48.504;9.224;2024-02-23T05:29:21;4.60;99.90
3256;DHT22;1640;48.504;9.224;2024-02-23T05:31:50;4.60;99.90
3256;DHT22;1640;48.504;9.224;2024-02-23T05:34:20;4.60;99.90
3256;DHT22;1640;48.504;9.224;2024-02-23T05:36:48;4.60;99.90
3256;DHT22;1640;48.504;9.224;2024-02-23T05:39:16;4.60;99.90
3256;DHT22;1640;48.504;9.224;2024-02-23T05:41:44;4.60;99.90
3256;DHT22;1640;48.504;9.224;2024-02-23T05:44:11;4.60;99.90
3256;DHT22;1640;48.504;9.224;2024-02-23T05:46:39;4.50;99.90
3256;DHT22;1640;48.504;9.224;2024-02-23T05:49:07;4.60;99.90
3256;DHT22;1640;48.504;9.224;2024-02-23T05:51:36;4.60;99.90
3256;DHT22;1640;48.504;9.224;2024-02-23T05:54:04;4.60;99.90
3256;DHT22;1640;48.504;9.224;2024-02-23T05:56:31;4.60;99.90
3256;DHT22;1640;48.504;9.224;2024-02-23T05:58:59;4.50;99.90
3256;DHT22;1640;48.504;9.224;2024-02-23T06:01:26;4.50;99.90
3256;DHT22;1640;48.504;9.224;2024-02-23T06:03:54;4.40;99.90
3256;DHT22;1640;48.504;9.224;2024-02-23T06:06:22;4.40;99.90
3256;DHT22;1640;48.504;9.224;2024-02-23T06:08:50;4.40;99.90
3256;DHT22;1640;48.504;9.224;2024-02-23T06:11:18;4.40;99.90
3256;DHT22;1640;48.504;9.224;2024-02-23T06:13:45;4.50;99.90
3256;DHT22;1640;48.504;9.224;2024-02-23T06:16:12;4.50;99.90
3256;DHT22;1640;48.504;9.224;2024-02-23T06:18:40;4.40;99.90
3256;DHT22;1640;48.504;9.224;2024-02-23T06:21:12;4.40;99.90
3256;DHT22;1640;48.504;9.224;2024-02-23T06:23:40;4.40;99.90
3256;DHT22;1640;48.504;9.224;2024-02-23T06:26:09;4.40;99.90
3256;DHT22;1640;48.504;9.224;2024-02-23T06:28:36;4.40;12.90
3256;DHT22;1640;48.504;9.224;2024-02-23T06:31:05;4.40;16.70
3256;DHT22;1640;48.504;9.224;2024-02-23T06:33:32;4.40;19.50
3256;DHT22;1640;48.504;9.224;2024-02-23T06:36:00;4.50;19.30
3256;DHT22;1640;48.504;9.224;2024-02-23T06:38:28;4.50;19.90
3256;DHT22;1640;48.504;9.224;2024-02-23T06:40:56;4.50;17.50
3256;DHT22;1640;48.504;9.224;2024-02-23T06:43:24;4.60;23.20
3256;DHT22;1640;48.504;9.224;2024-02-23T06:45:52;4.60;26.40
3256;DHT22;1640;48.504;9.224;2024-02-23T06:48:19;4.60;27.20
3256;DHT22;1640;48.504;9.224;2024-02-23T06:50:47;4.70;27.10
3256;DHT22;1640;48.504;9.224;2024-02-23T06:53:15;4.70;28.80
3256;DHT22;1640;48.504;9.224;2024-02-23T06:55:42;4.70;28.70
3256;DHT22;1640;48.504;9.224;2024-02-23T06:58:09;4.70;31.50
3256;DHT22;1640;48.504;9.224;2024-02-23T07:00:40;4.60;33.40
3256;DHT22;1640;48.504;9.224;2024-02-23T07:03:08;4.70;33.80
3256;DHT22;1640;48.504;9.224;2024-02-23T07:05:35;4.60;33.70
3256;DHT22;1640;48.504;9.224;2024-02-23T07:08:04;4.70;35.00
3256;DHT22;1640;48.504;9.224;2024-02-23T07:10:31;4.70;35.40
3256;DHT22;1640;48.504;9.224;2024-02-23T07:12:59;4.80;43.20
3256;DHT22;1640;48.504;9.224;2024-02-23T07:15:26;4.80;42.30
3256;DHT22;1640;48.504;9.224;2024-02-23T07:17:55;4.80;42.60
3256;DHT22;1640;48.504;9.224;2024-02-23T07:20:22;4.80;44.80
3256;DHT22;1640;48.504;9.224;2024-02-23T07:22:50;4.90;49.00
3256;DHT22;1640;48.504;9.224;2024-02-23T07:25:18;4.90;50.90
3256;DHT22;1640;48.504;9.224;2024-02-23T07:27:46;4.90;56.70
3256;DHT22;1640;48.504;9.224;2024-02-23T07:30:15;4.90;56.50
3256;DHT22;1640;48.504;9.224;2024-02-23T07:32:43;5.00;57.10
3256;DHT22;1640;48.504;9.224;2024-02-23T07:35:12;5.10;57.50
3256;DHT22;1640;48.504;9.224;2024-02-23T07:37:40;5.20;60.30
3256;DHT22;1640;48.504;9.224;2024-02-23T07:40:08;5.20;64.00
3256;DHT22;1640;48.504;9.224;2024-02-23T07:42:35;5.20;65.30
3256;DHT22;1640;48.504;9.224;2024-02-23T07:45:03;5.20;67.00
3256;DHT22;1640;48.504;9.224;2024-02-23T07:47:31;5.30;63.70
3256;DHT22;1640;48.504;9.224;2024-02-23T07:49:59;5.30;65.50
3256;DHT22;1640;48.504;9.224;2024-02-23T07:52:28;5.40;68.90
3256;DHT22;1640;48.504;9.224;2024-02-23T07:54:55;5.40;67.60
3256;DHT22;1640;48.504;9.224;2024-02-23T07:57:23;5.40;63.70
3256;DHT22;1640;48.504;9.224;2024-02-23T07:59:50;5.50;63.90
3256;DHT22;1640;48.504;9.224;2024-02-23T08:02:18;5.60;66.30
3256;DHT22;1640;48.504;9.224;2024-02-23T08:04:45;5.60;68.50
3256;DHT22;1640;48.504;9.224;2024-02-23T08:07:14;5.70;70.50
3256;DHT22;1640;48.504;9.224;2024-02-23T08:09:43;5.80;69.60
3256;DHT22;1640;48.504;9.224;2024-02-23T08:12:10;5.90;71.10
3256;DHT22;1640;48.504;9.224;2024-02-23T08:14:39;5.90;70.60
3256;DHT22;1640;48.504;9.224;2024-02-23T08:17:07;6.00;74.80
3256;DHT22;1640;48.504;9.224;2024-02-23T08:19:34;5.90;72.50
3256;DHT22;1640;48.504;9.224;2024-02-23T08:22:02;6.00;72.50
3256;DHT22;1640;48.504;9.224;2024-02-23T08:24:29;6.00;72.90
3256;DHT22;1640;48.504;9.224;2024-02-23T08:26:58;6.10;72.10
3256;DHT22;1640;48.504;9.224;2024-02-23T08:29:26;6.20;71.10
3256;DHT22;1640;48.504;9.224;2024-02-23T08:31:54;6.20;74.40
3256;DHT22;1640;48.504;9.224;2024-02-23T08:34:21;6.40;74.60
3256;DHT22;1640;48.504;9.224;2024-02-23T08:36:50;6.40;75.10
3256;DHT22;1640;48.504;9.224;2024-02-23T08:39:18;6.30;74.90
3256;DHT22;1640;48.504;9.224;2024-02-23T08:41:48;6.30;73.50
3256;DHT22;1640;48.504;9.224;2024-02-23T08:44:18;6.20;70.90
3256;DHT22;1640;48.504;9.224;2024-02-23T08:46:46;6.20;73.40
3256;DHT22;1640;48.504;9.224;2024-02-23T08:49:14;6.30;71.10
3256;DHT22;1640;48.504;9.224;2024-02-23T08:51:41;6.50;70.00
3256;DHT22;1640;48.504;9.224;2024-02-23T08:54:09;6.60;70.50
3256;DHT22;1640;48.504;9.224;2024-02-23T08:56:37;6.60;71.90
3256;DHT22;1640;48.504;9.224;2024-02-23T08:59:08;6.80;72.10
3256;DHT22;1640;48.504;9.224;2024-02-23T09:01:37;6.90;70.90
3256;DHT22;1640;48.504;9.224;2024-02-23T09:04:04;6.80;71.30
3256;DHT22;1640;48.504;9.224;2024-02-23T09:06:32;6.90;71.20
3256;DHT22;1640;48.504;9.224;2024-02-23T09:09:00;7.00;72.10
3256;DHT22;1640;48.504;9.224;2024-02-23T09:11:27;6.80;70.80
3256;DHT22;1640;48.504;9.224;2024-02-23T09:17:18;6.90;73.60
3256;DHT22;1640;48.504;9.224;2024-02-23T09:19:47;6.70;72.60
3256;DHT22;1640;48.504;9.224;2024-02-23T09:22:15;6.60;72.10
3256;DHT22;1640;48.504;9.224;2024-02-23T09:24:43;6.60;69.00
3256;DHT22;1640;48.504;9.224;2024-02-23T09:27:11;6.80;71.10
3256;DHT22;1640;48.504;9.224;2024-02-23T09:29:40;7.00;70.60
3256;DHT22;1640;48.504;9.224;2024-02-23T09:32:08;7.20;73.20
3256;DHT22;1640;48.504;9.224;2024-02-23T09:34:36;7.30;75.40
3256;DHT22;1640;48.504;9.224;2024-02-23T09:37:04;7.20;75.50
3256;DHT22;1640;48.504;9.224;2024-02-23T09:39:31;7.40;75.80
3256;DHT22;1640;48.504;9.224;2024-02-23T09:41:59;7.50;76.10
3256;DHT22;1640;48.504;9.224;2024-02-23T09:44:32;7.50;76.80
3256;DHT22;1640;48.504;9.224;2024-02-23T09:47:01;7.60;76.80
3256;DHT22;1640;48.504;9.224;2024-02-23T09:49:37;7.50;76.50
3256;DHT22;1640;48.504;9.224;2024-02-23T09:52:07;7.30;76.90
3256;DHT22;1640;48.504;9.224;2024-02-23T09:54:36;7.20;75.90
3256;DHT22;1640;48.504;9.224;2024-02-23T09:57:06;7.30;74.50
3256;DHT22;1640;48.504;9.224;2024-02-23T09:59:35;7.30;75.20
3256;DHT22;1640;48.504;9.224;2024-02-23T10:02:06;7.30;77.20
3256;DHT22;1640;48.504;9.224;2024-02-23T10:04:37;7.40;77.10
3256;DHT22;1640;48.504;9.224;2024-02-23T10:07:06;7.50;77.70
3256;DHT22;1640;48.504;9.224;2024-02-23T10:09:33;7.60;76.70
3256;DHT22;1640;48.504;9.224;2024-02-23T10:12:01;7.60;76.10
3256;DHT22;1640;48.504;9.224;2024-02-23T10:14:29;7.70;76.20
3256;DHT22;1640;48.504;9.224;2024-02-23T10:16:56;7.60;76.40
3256;DHT22;1640;48.504;9.224;2024-02-23T10:19:25;7.80;76.20
3256;DHT22;1640;48.504;9.224;2024-02-23T10:21:57;8.10;76.10
3256;DHT22;1640;48.504;9.224;2024-02-23T10:24:24;8.40;76.50
3256;DHT22;1640;48.504;9.224;2024-02-23T10:26:52;8.60;76.90
3256;DHT22;1640;48.504;9.224;2024-02-23T10:29:19;8.60;76.40
3256;DHT22;1640;48.504;9.224;2024-02-23T10:31:47;8.90;76.70
3256;DHT22;1640;48.504;9.224;2024-02-23T10:34:19;8.90;76.70
3256;DHT22;1640;48.504;9.224;2024-02-23T10:36:47;8.80;75.60
3256;DHT22;1640;48.504;9.224;2024-02-23T10:39:18;8.90;77.10
3256;DHT22;1640;48.504;9.224;2024-02-23T10:41:48;8.90;76.40
3256;DHT22;1640;48.504;9.224;2024-02-23T10:44:17;8.80;76.90
3256;DHT22;1640;48.504;9.224;2024-02-23T10:46:45;8.80;76.20
3256;DHT22;1640;48.504;9.224;2024-02-23T10:49:14;8.60;76.50
3256;DHT22;1640;48.504;9.224;2024-02-23T10:51:43;8.90;76.50
3256;DHT22;1640;48.504;9.224;2024-02-23T10:54:11;9.00;75.90
3256;DHT22;1640;48.504;9.224;2024-02-23T10:56:41;9.10;75.90
3256;DHT22;1640;48.504;9.224;2024-02-23T10:59:08;9.00;74.10
3256;DHT22;1640;48.504;9.224;2024-02-23T11:01:37;9.20;74.40
3256;DHT22;1640;48.504;9.224;2024-02-23T11:04:07;9.20;73.80
3256;DHT22;1640;48.504;9.224;2024-02-23T11:06:35;9.10;73.20
3256;DHT22;1640;48.504;9.224;2024-02-23T11:09:06;9.10;74.50
3256;DHT22;1640;48.504;9.224;2024-02-23T11:11:37;9.10;75.10
3256;DHT22;1640;48.504;9.224;2024-02-23T11:14:08;9.00;73.80
3256;DHT22;1640;48.504;9.224;2024-02-23T11:16:39;8.90;75.40
3256;DHT22;1640;48.504;9.224;2024-02-23T11:19:09;8.90;76.20
3256;DHT22;1640;48.504;9.224;2024-02-23T11:21:38;8.90;76.40
3256;DHT22;1640;48.504;9.224;2024-02-23T11:24:06;8.70;76.20
3256;DHT22;1640;48.504;9.224;2024-02-23T11:26:37;8.70;76.40
3256;DHT22;1640;48.504;9.224;2024-02-23T11:29:11;8.80;76.70
3256;DHT22;1640;48.504;9.224;2024-02-23T11:31:44;8.80;76.50
3256;DHT22;1640;48.504;9.224;2024-02-23T11:34:12;8.70;76.50
3256;DHT22;1640;48.504;9.224;2024-02-23T11:36:40;8.60;76.40
3256;DHT22;1640;48.504;9.224;2024-02-23T11:39:10;8.50;76.70
3256;DHT22;1640;48.504;9.224;2024-02-23T11:41:39;8.50;76.90
3256;DHT22;1640;48.504;9.224;2024-02-23T11:44:07;8.60;76.90
3256;DHT22;1640;48.504;9.224;2024-02-23T11:46:36;8.50;76.70
3256;DHT22;1640;48.504;9.224;2024-02-23T11:49:03;8.60;76.80
3256;DHT22;1640;48.504;9.224;2024-02-23T11:51:31;8.60;76.40
3256;DHT22;1640;48.504;9.224;2024-02-23T11:53:58;8.50;76.80
3256;DHT22;1640;48.504;9.224;2024-02-23T11:56:26;8.40;76.20
3256;DHT22;1640;48.504;9.224;2024-02-23T11:58:54;8.50;76.70
3256;DHT22;1640;48.504;9.224;2024-02-23T12:01:22;8.60;76.50
3256;DHT22;1640;48.504;9.224;2024-02-23T12:03:50;8.80;76.40
3256;DHT22;1640;48.504;9.224;2024-02-23T12:06:18;9.00;76.70
3256;DHT22;1640;48.504;9.224;2024-02-23T12:08:46;8.70;77.10
3256;DHT22;1640;48.504;9.224;2024-02-23T12:11:14;8.60;76.50
3256;DHT22;1640;48.504;9.224;2024-02-23T12:13:41;8.70;76.50
3256;DHT22;1640;48.504;9.224;2024-02-23T12:16:09;8.60;76.40
3256;DHT22;1640;48.504;9.224;2024-02-23T12:18:36;8.60;76.40
3256;DHT22;1640;48.504;9.224;2024-02-23T12:21:07;8.70;76.90
3256;DHT22;1640;48.504;9.224;2024-02-23T12:23:41;8.90;76.80
3256;DHT22;1640;48.504;9.224;2024-02-23T12:26:08;8.90;76.20
3256;DHT22;1640;48.504;9.224;2024-02-23T12:28:36;8.90;76.80
3256;DHT22;1640;48.504;9.224;2024-02-23T12:31:05;8.70;75.90
3256;DHT22;1640;48.504;9.224;2024-02-23T12:33:33;8.60;76.50
3256;DHT22;1640;48.504;9.224;2024-02-23T12:36:02;8.80;76.50
3256;DHT22;1640;48.504;9.224;2024-02-23T12:38:32;8.70;76.90
3256;DHT22;1640;48.504;9.224;2024-02-23T12:41:00;8.80;76.50
3256;DHT22;1640;48.504;9.224;2024-02-23T12:43:28;8.80;76.80
3256;DHT22;1640;48.504;9.224;2024-02-23T12:45:56;9.00;76.40
3256;DHT22;1640;48.504;9.224;2024-02-23T12:48:24;9.10;76.40
3256;DHT22;1640;48.504;9.224;2024-02-23T12:50:52;9.20;76.10
3256;DHT22;1640;48.504;9.224;2024-02-23T12:53:34;9.30;76.20
3256;DHT22;1640;48.504;9.224;2024-02-23T12:56:03;9.30;75.90
3256;DHT22;1640;48.504;9.224;2024-02-23T12:58:31;9.30;75.90
3256;DHT22;1640;48.504;9.224;2024-02-23T13:00:58;9.30;75.80
3256;DHT22;1640;48.504;9.224;2024-02-23T13:03:26;9.40;76.10
3256;DHT22;1640;48.504;9.224;2024-02-23T13:05:55;9.40;75.60
3256;DHT22;1640;48.504;9.224;2024-02-23T13:08:23;9.30;75.80
3256;DHT22;1640;48.504;9.224;2024-02-23T13:10:52;9.50;75.90
3256;DHT22;1640;48.504;9.224;2024-02-23T13:13:20;9.50;75.10
3256;DHT22;1640;48.504;9.224;2024-02-23T13:15:49;9.50;75.20
3256;DHT22;1640;48.504;9.224;2024-02-23T13:18:16;9.70;74.60
3256;DHT22;1640;48.504;9.224;2024-02-23T13:20:45;9.60;75.10
3256;DHT22;1640;48.504;9.224;2024-02-23T13:23:12;9.60;75.60
3256;DHT22;1640;48.504;9.224;2024-02-23T13:25:42;9.70;75.50
3256;DHT22;1640;48.504;9.224;2024-02-23T13:28:11;9.60;75.40
3256;DHT22;1640;48.504;9.224;2024-02-23T13:30:39;9.50;75.50
3256;DHT22;1640;48.504;9.224;2024-02-23T13:33:08;9.40;75.90
3256;DHT22;1640;48.504;9.224;2024-02-23T13:35:37;9.20;75.60
3256;DHT22;1640;48.504;9.224;2024-02-23T13:38:05;9.20;75.90
3256;DHT22;1640;48.504;9.224;2024-02-23T13:40:33;9.20;75.80
3256;DHT22;1640;48.504;9.224;2024-02-23T13:43:00;9.10;76.20
3256;DHT22;1640;48.504;9.224;2024-02-23T13:45:29;9.20;76.10
3256;DHT22;1640;48.504;9.224;2024-02-23T13:47:57;9.30;76.10
3256;DHT22;1640;48.504;9.224;2024-02-23T13:50:26;9.30;75.90
3256;DHT22;1640;48.504;9.224;2024-02-23T13:52:53;9.30;75.90
3256;DHT22;1640;48.504;9.224;2024-02-23T13:55:21;9.30;76.50
3256;DHT22;1640;48.504;9.224;2024-02-23T13:57:49;9.40;75.50
3256;DHT22;1640;48.504;9.224;2024-02-23T14:00:17;9.40;75.10
3256;DHT22;1640;48.504;9.224;2024-02-23T14:02:47;9.40;75.10
3256;DHT22;1640;48.504;9.224;2024-02-23T14:05:14;9.40;75.90
3256;DHT22;1640;48.504;9.224;2024-02-23T14:07:44;9.40;75.80
3256;DHT22;1640;48.504;9.224;2024-02-23T14:10:11;9.50;75.50
3256;DHT22;1640;48.504;9.224;2024-02-23T14:12:39;9.60;74.60
3256;DHT22;1640;48.504;9.224;2024-02-23T14:15:08;9.60;73.90
3256;DHT22;1640;48.504;9.224;2024-02-23T14:17:36;9.70;74.40
3256;DHT22;1640;48.504;9.224;2024-02-23T14:20:06;9.80;72.90
3256;DHT22;1640;48.504;9.224;2024-02-23T14:22:33;9.80;73.80
3256;DHT22;1640;48.504;9.224;2024-02-23T14:25:01;9.50;74.20
3256;DHT22;1640;48.504;9.224;2024-02-23T14:27:28;9.20;75.20
3256;DHT22;1640;48.504;9.224;2024-02-23T14:29:56;9.10;75.90
3256;DHT22;1640;48.504;9.224;2024-02-23T14:32:23;9.30;75.60
3256;DHT22;1640;48.504;9.224;2024-02-23T14:34:50;9.40;75.40
3256;DHT22;1640;48.504;9.224;2024-02-23T14:37:19;9.40;75.60
3256;DHT22;1640;48.504;9.224;2024-02-23T14:39:46;9.30;76.20
3256;DHT22;1640;48.504;9.224;2024-02-23T14:42:15;9.30;75.40
3256;DHT22;1640;48.504;9.224;2024-02-23T14:44:42;9.30;75.50
3256;DHT22;1640;48.504;9.224;2024-02-23T14:47:10;9.50;75.50
3256;DHT22;1640;48.504;9.224;2024-02-23T14:49:38;9.70;75.60
3256;DHT22;1640;48.504;9.224;2024-02-23T14:52:06;9.50;74.80
3256;DHT22;1640;48.504;9.224;2024-02-23T14:54:35;9.40;75.40
3256;DHT22;1640;48.504;9.224;2024-02-23T14:57:03;9.50;75.50
3256;DHT22;1640;48.504;9.224;2024-02-23T14:59:30;9.70;75.20
3256;DHT22;1640;48.504;9.224;2024-02-23T15:02:02;10.00;74.90
3256;DHT22;1640;48.504;9.224;2024-02-23T15:04:30;10.00;74.10
3256;DHT22;1640;48.504;9.224;2024-02-23T15:06:57;10.00;74.10
3256;DHT22;1640;48.504;9.224;2024-02-23T15:09:24;10.00;74.10
3256;DHT22;1640;48.504;9.224;2024-02-23T15:11:53;9.90;74.10
3256;DHT22;1640;48.504;9.224;2024-02-23T15:14:21;10.00;74.20
3256;DHT22;1640;48.504;9.224;2024-02-23T15:16:48;10.00;74.10
3256;DHT22;1640;48.504;9.224;2024-02-23T15:19:15;10.10;73.80
3256;DHT22;1640;48.504;9.224;2024-02-23T15:21:43;10.10;73.40
3256;DHT22;1640;48.504;9.224;2024-02-23T15:24:11;10.30;73.10
3256;DHT22;1640;48.504;9.224;2024-02-23T15:26:39;10.40;71.90
3256;DHT22;1640;48.504;9.224;2024-02-23T15:29:08;10.40;71.90
3256;DHT22;1640;48.504;9.224;2024-02-23T15:31:35;10.30;71.50
3256;DHT22;1640;48.504;9.224;2024-02-23T15:34:05;10.30;72.20
3256;DHT22;1640;48.504;9.224;2024-02-23T15:36:32;10.10;71.30
3256;DHT22;1640;48.504;9.224;2024-02-23T15:39:00;10.00;71.80
3256;DHT22;1640;48.504;9.224;2024-02-23T15:41:29;9.80;72.80
3256;DHT22;1640;48.504;9.224;2024-02-23T15:43:57;9.60;73.20
3256;DHT22;1640;48.504;9.224;2024-02-23T15:46:26;9.60;75.40
3256;DHT22;1640;48.504;9.224;2024-02-23T15:48:54;9.60;74.50
3256;DHT22;1640;48.504;9.224;2024-02-23T15:51:21;9.50;74.10
3256;DHT22;1640;48.504;9.224;2024-02-23T15:53:49;9.50;74.80
3256;DHT22;1640;48.504;9.224;2024-02-23T15:56:16;9.40;74.40
3256;DHT22;1640;48.504;9.224;2024-02-23T15:58:44;9.40;74.80
3256;DHT22;1640;48.504;9.224;2024-02-23T16:01:11;9.30;75.10
3256;DHT22;1640;48.504;9.224;2024-02-23T16:03:40;9.30;75.20
3256;DHT22;1640;48.504;9.224;2024-02-23T16:06:07;9.40;75.40
3256;DHT22;1640;48.504;9.224;2024-02-23T16:08:42;9.30;75.10
3256;DHT22;1640;48.504;9.224;2024-02-23T16:11:10;9.00;75.10
3256;DHT22;1640;48.504;9.224;2024-02-23T16:13:38;8.80;75.60
3256;DHT22;1640;48.504;9.224;2024-02-23T16:16:06;8.70;75.60
3256;DHT22;1640;48.504;9.224;2024-02-23T16:18:34;8.60;75.80
3256;DHT22;1640;48.504;9.224;2024-02-23T16:21:03;8.60;76.10
3256;DHT22;1640;48.504;9.224;2024-02-23T16:23:31;8.60;76.10
3256;DHT22;1640;48.504;9.224;2024-02-23T16:25:58;8.50;76.20
3256;DHT22;1640;48.504;9.224;2024-02-23T16:28:26;8.40;76.40